Time;durP1;ratioP1;P1;durP2;ratioP2;P2;SDS_P1;SDS_P2;PMS_P1;PMS_P2;Temp;Humidity;BMP_temperature;BMP_pressure;BME280_temperature;BME280_humidity;BME280_pressure;Samples;Min_cycle;Max_cycle;Signal;HPM_P1;HPM_P2
2023/04/24 00:02:18;;;;;;;7.18;4.15;;;9.30;99.90;;;;;;5089105;28;20110;-58
2023/04/24 00:04:46;;;;;;;6.57;3.80;;;9.40;99.90;;;;;;5067050;28;20687;-60
2023/04/24 00:07:12;;;;;;;6.20;4.00;;;9.40;99.90;;;;;;5089847;28;20385;-60
2023/04/24 00:09:38;;;;;;;4.15;3.55;;;9.30;99.90;;;;;;5067998;28;20028;-59
2023/04/24 00:12:04;;;;;;;5.20;3.60;;;9.30;99.90;;;;;;5088838;28;20514;-60
2023/04/24 00:14:31;;;;;;;5.10;3.88;;;9.30;99.90;;;;;;5067971;28;20601;-59
2023/04/24 00:16:56;;;;;;;6.43;3.10;;;9.30;99.90;;;;;;5088954;28;20040;-60
2023/04/24 00:19:22;;;;;;;5.70;4.10;;;9.20;99.90;;;;;;5067918;28;20044;-58
2023/04/24 00:21:49;;;;;;;5.40;3.45;;;9.20;99.90;;;;;;5088725;28;20082;-59
2023/04/24 00:24:16;;;;;;;5.05;3.50;;;9.20;99.90;;;;;;5067566;28;20056;-59
2023/04/24 00:26:42;;;;;;;5.45;3.97;;;9.10;99.90;;;;;;5088903;28;20023;-59
2023/04/24 00:29:07;;;;;;;5.43;3.90;;;9.10;99.90;;;;;;5067956;28;20058;-59
2023/04/24 00:31:34;;;;;;;6.43;4.53;;;9.00;99.90;;;;;;5081917;28;20032;-60
2023/04/24 00:34:03;;;;;;;4.40;3.60;;;9.00;99.90;;;;;;5077212;28;20679;-59
2023/04/24 00:36:30;;;;;;;7.10;5.47;;;9.00;99.90;;;;;;5070742;28;20059;-61
2023/04/24 00:38:56;;;;;;;8.18;4.25;;;9.00;99.90;;;;;;5089343;28;20027;-60
2023/04/24 00:41:22;;;;;;;5.70;4.80;;;9.00;99.90;;;;;;5083542;28;20020;-59
2023/04/24 00:43:47;;;;;;;5.78;4.30;;;9.10;99.90;;;;;;5068245;28;20613;-59
2023/04/24 00:46:14;;;;;;;8.02;4.80;;;9.10;99.90;;;;;;5084861;28;20028;-59
2023/04/24 00:48:40;;;;;;;6.03;4.28;;;9.10;99.90;;;;;;5068958;28;20016;-60
2023/04/24 00:51:06;;;;;;;6.65;4.75;;;9.10;99.90;;;;;;5085695;28;20030;-60
2023/04/24 00:53:32;;;;;;;5.30;4.47;;;9.10;99.90;;;;;;5068670;28;20036;-60
2023/04/24 00:55:58;;;;;;;5.28;4.00;;;9.10;99.90;;;;;;5088276;28;20024;-60
2023/04/24 00:58:24;;;;;;;7.95;4.53;;;9.10;99.90;;;;;;5067109;28;20044;-61
2023/04/24 01:00:53;;;;;;;6.88;4.38;;;9.10;99.90;;;;;;5088218;28;20035;-60
2023/04/24 01:03:21;;;;;;;7.47;4.50;;;9.10;99.90;;;;;;5066960;28;20036;-59
2023/04/24 01:05:47;;;;;;;7.38;4.53;;;9.10;99.90;;;;;;5070898;28;20024;-59
2023/04/24 01:08:14;;;;;;;6.50;4.63;;;9.10;99.90;;;;;;5086647;28;20052;-59
2023/04/24 01:10:41;;;;;;;7.55;4.75;;;9.10;99.90;;;;;;5088517;28;20491;-60
2023/04/24 01:13:08;;;;;;;6.32;5.00;;;9.10;99.90;;;;;;5065893;28;20028;-59
2023/04/24 01:15:34;;;;;;;8.10;4.80;;;9.10;99.90;;;;;;5088218;28;20032;-60
2023/04/24 01:18:00;;;;;;;7.28;5.15;;;9.10;99.90;;;;;;5067142;28;20047;-59
2023/04/24 01:20:26;;;;;;;6.47;4.60;;;9.00;99.90;;;;;;5088020;28;20407;-60
2023/04/24 01:22:52;;;;;;;9.00;5.05;;;9.10;99.90;;;;;;5067160;28;20503;-59
2023/04/24 01:25:18;;;;;;;9.23;5.20;;;9.20;99.90;;;;;;5087988;28;20032;-59
2023/04/24 01:27:44;;;;;;;8.35;4.80;;;9.10;99.90;;;;;;5067258;28;20032;-59
2023/04/24 01:30:10;;;;;;;5.38;4.75;;;9.10;99.90;;;;;;5088028;28;20114;-59
2023/04/24 01:32:36;;;;;;;6.82;4.43;;;9.20;99.90;;;;;;5066940;28;20063;-59
2023/04/24 01:35:03;;;;;;;6.65;4.95;;;9.20;99.90;;;;;;5087885;28;20095;-60
2023/04/24 01:37:29;;;;;;;10.10;4.82;;;9.20;99.90;;;;;;5067109;28;20081;-60
2023/04/24 01:39:54;;;;;;;6.75;5.10;;;9.30;99.90;;;;;;5086491;28;20032;-59
2023/04/24 01:42:20;;;;;;;5.85;4.70;;;9.30;99.90;;;;;;5078143;28;20035;-59
2023/04/24 01:44:46;;;;;;;5.57;4.68;;;9.30;99.90;;;;;;5088545;28;20539;-62
2023/04/24 01:47:12;;;;;;;6.78;4.95;;;9.40;99.90;;;;;;5076778;28;20623;-61
2023/04/24 01:49:38;;;;;;;6.10;4.57;;;9.50;99.90;;;;;;5088439;28;20030;-62
2023/04/24 01:52:04;;;;;;;7.57;5.10;;;9.50;99.90;;;;;;5075659;28;20024;-61
2023/04/24 01:54:30;;;;;;;10.27;4.97;;;9.40;99.90;;;;;;5088466;28;20026;-59
2023/04/24 01:56:55;;;;;;;6.65;5.25;;;9.40;99.90;;;;;;5074766;28;20039;-59
2023/04/24 01:59:23;;;;;;;9.57;5.57;;;9.50;99.90;;;;;;5088434;28;20028;-59
2023/04/24 02:01:48;;;;;;;7.22;5.15;;;9.40;99.90;;;;;;5079616;28;20032;-59
2023/04/24 02:04:15;;;;;;;5.15;4.03;;;9.50;99.90;;;;;;5068224;28;20097;-59
2023/04/24 02:06:40;;;;;;;8.52;3.92;;;9.40;99.90;;;;;;5073470;28;20039;-59
2023/04/24 02:09:06;;;;;;;6.25;4.63;;;9.40;99.90;;;;;;5077309;28;20407;-59
2023/04/24 02:11:31;;;;;;;5.70;4.57;;;9.30;99.90;;;;;;5068516;28;20032;-59
2023/04/24 02:13:57;;;;;;;7.40;5.53;;;9.30;99.90;;;;;;5075502;28;20040;-59
2023/04/24 02:16:22;;;;;;;12.45;6.72;;;9.40;99.90;;;;;;5088023;28;20103;-59
2023/04/24 02:18:48;;;;;;;7.57;5.82;;;9.50;99.90;;;;;;5079046;28;20035;-59
2023/04/24 02:21:13;;;;;;;7.68;5.53;;;9.50;99.90;;;;;;5091843;28;20043;-60
2023/04/24 02:23:39;;;;;;;6.95;5.35;;;9.50;99.90;;;;;;5077656;28;20043;-59
2023/04/24 02:26:04;;;;;;;6.93;5.55;;;9.50;99.90;;;;;;5091731;28;20508;-59
2023/04/24 02:28:30;;;;;;;7.82;5.20;;;9.50;99.90;;;;;;5083328;28;20028;-59
2023/04/24 02:30:55;;;;;;;7.13;5.38;;;9.50;99.90;;;;;;5071565;28;20031;-60
2023/04/24 02:33:21;;;;;;;8.90;5.55;;;9.50;99.90;;;;;;5082371;28;20052;-58
2023/04/24 02:35:46;;;;;;;8.23;6.07;;;9.50;99.90;;;;;;5071463;28;20036;-59
2023/04/24 02:38:12;;;;;;;8.13;6.20;;;9.50;99.90;;;;;;5085097;28;20020;-58
2023/04/24 02:40:37;;;;;;;8.00;5.93;;;9.50;99.90;;;;;;5069870;28;20079;-59
2023/04/24 02:43:03;;;;;;;7.03;5.38;;;9.50;99.90;;;;;;5086256;28;20040;-59
2023/04/24 02:45:28;;;;;;;6.57;5.45;;;9.40;99.90;;;;;;5071227;28;20054;-60
2023/04/24 02:47:54;;;;;;;8.60;5.40;;;9.40;99.90;;;;;;5087486;28;20059;-60
2023/04/24 02:50:19;;;;;;;5.80;4.68;;;9.40;99.90;;;;;;5071100;28;20095;-60
2023/04/24 02:52:45;;;;;;;6.70;5.00;;;9.40;99.90;;;;;;5089902;28;20047;-59
2023/04/24 02:55:10;;;;;;;5.28;4.57;;;9.40;99.90;;;;;;5091123;28;20024;-59
2023/04/24 02:57:36;;;;;;;10.75;5.53;;;9.40;99.90;;;;;;5090999;28;20020;-59
2023/04/24 03:00:03;;;;;;;7.22;4.93;;;9.40;99.90;;;;;;5068423;28;20021;-59
2023/04/24 03:02:28;;;;;;;7.55;5.20;;;9.40;99.90;;;;;;5090514;28;20027;-58
2023/04/24 03:04:54;;;;;;;9.57;5.22;;;9.40;99.90;;;;;;5068916;28;20024;-60
2023/04/24 03:07:20;;;;;;;9.18;4.65;;;9.40;99.90;;;;;;5091153;28;20036;-60
2023/04/24 03:09:47;;;;;;;7.53;5.60;;;9.50;99.90;;;;;;5069405;28;20031;-59
2023/04/24 03:12:12;;;;;;;6.93;4.68;;;9.50;99.90;;;;;;5088999;28;20047;-59
2023/04/24 03:14:38;;;;;;;7.32;5.15;;;9.60;99.90;;;;;;5069483;28;20451;-59
2023/04/24 03:17:03;;;;;;;7.07;4.90;;;9.60;99.90;;;;;;5090141;28;20107;-59
2023/04/24 03:19:29;;;;;;;7.20;4.88;;;9.70;99.90;;;;;;5069152;28;20028;-60
2023/04/24 03:21:54;;;;;;;5.63;4.43;;;9.70;99.90;;;;;;5088516;28;20035;-60
2023/04/24 03:24:20;;;;;;;5.45;4.50;;;9.80;99.90;;;;;;5068883;28;20036;-59
2023/04/24 03:26:46;;;;;;;9.57;4.82;;;9.80;99.90;;;;;;5089793;28;20040;-57
2023/04/24 03:29:11;;;;;;;6.47;4.60;;;9.80;99.90;;;;;;5068129;28;20055;-58
2023/04/24 03:31:36;;;;;;;6.60;5.55;;;9.90;99.90;;;;;;5089625;28;20042;-59
2023/04/24 03:34:02;;;;;;;7.03;5.10;;;9.90;99.90;;;;;;5079295;28;20040;-59
2023/04/24 03:36:28;;;;;;;6.28;4.38;;;9.90;99.90;;;;;;5090179;28;20036;-60
2023/04/24 03:38:53;;;;;;;6.13;4.55;;;9.90;99.90;;;;;;5075688;28;20442;-59
2023/04/24 03:41:18;;;;;;;7.05;4.90;;;10.00;99.90;;;;;;5069336;28;20083;-56
2023/04/24 03:43:44;;;;;;;6.18;4.85;;;10.00;99.90;;;;;;5089359;28;20042;-50
2023/04/24 03:46:10;;;;;;;6.30;4.72;;;10.00;99.90;;;;;;5068459;28;20040;-56
2023/04/24 03:48:35;;;;;;;6.43;4.90;;;10.10;99.90;;;;;;5090656;28;20774;-54
2023/04/24 03:51:01;;;;;;;7.22;5.13;;;10.10;99.90;;;;;;5069315;28;20028;-52
2023/04/24 03:53:26;;;;;;;6.90;4.95;;;10.10;99.90;;;;;;5090257;28;20020;-55
2023/04/24 03:55:53;;;;;;;6.03;4.68;;;10.20;99.90;;;;;;5089861;28;20067;-55
2023/04/24 03:58:19;;;;;;;6.10;4.78;;;10.20;99.90;;;;;;5088286;28;20430;-55
2023/04/24 04:00:46;;;;;;;7.28;4.70;;;10.20;99.90;;;;;;5070482;28;20477;-53
2023/04/24 04:03:13;;;;;;;7.60;5.10;;;10.30;99.90;;;;;;5087797;28;20035;-54
2023/04/24 04:05:38;;;;;;;7.00;5.45;;;10.30;99.90;;;;;;5074625;28;20485;-52
2023/04/24 04:08:04;;;;;;;8.25;6.05;;;10.30;99.90;;;;;;5087056;28;20066;-55
2023/04/24 04:10:29;;;;;;;6.32;5.03;;;10.30;99.90;;;;;;5089731;28;20020;-54
2023/04/24 04:12:55;;;;;;;5.97;4.70;;;10.40;99.90;;;;;;5068318;28;20044;-52
2023/04/24 04:15:20;;;;;;;6.95;5.22;;;10.30;99.90;;;;;;5089134;28;20039;-55
2023/04/24 04:17:46;;;;;;;6.63;5.22;;;10.40;99.90;;;;;;5068261;28;20020;-56
2023/04/24 04:20:12;;;;;;;5.32;4.30;;;10.40;99.90;;;;;;5088211;28;20028;-53
2023/04/24 04:22:37;;;;;;;5.80;4.80;;;10.40;99.90;;;;;;5067561;28;20039;-55
2023/04/24 04:25:04;;;;;;;7.45;5.22;;;10.40;99.90;;;;;;5088828;28;20115;-53
2023/04/24 04:27:31;;;;;;;6.72;4.60;;;10.40;99.90;;;;;;5066151;28;20029;-52
2023/04/24 04:30:01;;;;;;;6.82;5.38;;;10.50;99.90;;;;;;5089107;28;20039;-55
2023/04/24 04:32:26;;;;;;;7.53;5.20;;;10.50;99.90;;;;;;5067486;28;20209;-55
2023/04/24 04:34:53;;;;;;;7.57;5.95;;;10.50;99.90;;;;;;5088665;28;20038;-54
2023/04/24 04:37:18;;;;;;;6.22;4.78;;;10.50;99.90;;;;;;5068019;28;20668;-52
2023/04/24 04:39:44;;;;;;;5.53;4.68;;;10.50;99.90;;;;;;5068475;28;20032;-54
2023/04/24 04:42:10;;;;;;;6.45;4.90;;;10.60;99.90;;;;;;5087086;28;20024;-55
2023/04/24 04:44:35;;;;;;;8.15;4.57;;;10.70;99.90;;;;;;5089527;28;20039;-55
2023/04/24 04:47:05;;;;;;;5.47;4.30;;;10.80;99.90;;;;;;5067947;28;20614;-54
2023/04/24 04:49:31;;;;;;;6.28;3.97;;;10.80;99.90;;;;;;5089093;28;20128;-52
2023/04/24 04:51:57;;;;;;;5.50;4.13;;;10.80;99.90;;;;;;5067567;28;20029;-52
2023/04/24 04:54:22;;;;;;;6.25;4.60;;;10.80;99.90;;;;;;5088460;28;20032;-55
2023/04/24 04:56:50;;;;;;;6.82;4.07;;;10.90;99.90;;;;;;5067825;28;20100;-54
2023/04/24 04:59:15;;;;;;;5.60;4.30;;;10.80;99.90;;;;;;5088681;28;20623;-55
2023/04/24 05:01:41;;;;;;;5.53;4.30;;;10.90;99.90;;;;;;5074744;28;20111;-54
2023/04/24 05:04:06;;;;;;;7.43;4.30;;;10.90;99.90;;;;;;5065128;28;20284;-55
2023/04/24 05:06:32;;;;;;;5.47;4.38;;;10.90;99.90;;;;;;5069286;28;20467;-53
2023/04/24 05:08:57;;;;;;;7.57;4.63;;;10.90;99.90;;;;;;5073999;28;20151;-56
2023/04/24 05:11:23;;;;;;;6.32;4.57;;;11.00;99.90;;;;;;5072988;28;20506;-54
2023/04/24 05:13:49;;;;;;;5.97;3.65;;;11.00;99.90;;;;;;5077628;28;20039;-55
2023/04/24 05:16:14;;;;;;;5.30;4.47;;;11.00;99.90;;;;;;5070874;28;20025;-55
2023/04/24 05:18:40;;;;;;;6.32;4.53;;;11.00;99.90;;;;;;5064434;28;20567;-54
2023/04/24 05:21:05;;;;;;;9.38;4.05;;;11.10;99.90;;;;;;5079340;28;20024;-56
2023/04/24 05:23:31;;;;;;;5.25;4.25;;;11.10;99.90;;;;;;5066623;28;20029;-54
2023/04/24 05:25:57;;;;;;;6.38;4.47;;;11.20;99.90;;;;;;5067764;28;20020;-53
2023/04/24 05:28:22;;;;;;;6.82;4.68;;;11.20;99.90;;;;;;5066316;28;20033;-53
2023/04/24 05:30:48;;;;;;;6.15;3.80;;;11.30;99.90;;;;;;5077599;28;20020;-51
2023/04/24 05:33:13;;;;;;;6.10;4.63;;;11.40;99.90;;;;;;5069070;28;20501;-55
2023/04/24 05:35:45;;;;;;;7.50;4.15;;;11.50;99.90;;;;;;5067892;28;20830;-51
2023/04/24 05:38:11;;;;;;;6.78;4.47;;;11.50;99.90;;;;;;5068447;28;20028;-54
2023/04/24 05:40:37;;;;;;;6.60;4.25;;;11.70;99.90;;;;;;5081920;28;20225;-53
2023/04/24 05:43:02;;;;;;;4.97;4.03;;;11.80;99.90;;;;;;5063974;28;20028;-54
2023/04/24 05:45:28;;;;;;;5.22;3.90;;;11.90;99.90;;;;;;5064614;28;20555;-53
2023/04/24 05:47:54;;;;;;;5.65;3.80;;;12.10;99.90;;;;;;5081330;28;20025;-54
2023/04/24 05:50:21;;;;;;;6.53;3.42;;;12.30;99.90;;;;;;5065213;28;20075;-53
2023/04/24 05:52:46;;;;;;;9.20;3.63;;;12.40;99.90;;;;;;5089291;28;20058;-52
2023/04/24 05:55:13;;;;;;;6.50;3.65;;;12.70;99.90;;;;;;5080159;28;20035;-52
2023/04/24 05:57:38;;;;;;;3.58;3.08;;;14.00;99.90;;;;;;5090962;28;20043;-56
2023/04/24 06:00:05;;;;;;;3.85;2.50;;;14.90;99.90;;;;;;5079376;28;20032;-53
2023/04/24 06:02:32;;;;;;;4.53;2.88;;;15.20;99.90;;;;;;5090652;28;20036;-54
2023/04/24 06:04:59;;;;;;;4.38;3.03;;;15.30;99.90;;;;;;5070718;28;20047;-54
2023/04/24 06:07:26;;;;;;;3.33;3.03;;;15.40;99.90;;;;;;5090353;28;20046;-52
2023/04/24 06:09:52;;;;;;;2.70;2.47;;;15.30;99.90;;;;;;5077148;28;20534;-54
2023/04/24 06:12:17;;;;;;;3.10;2.78;;;15.30;99.90;;;;;;5090378;28;20111;-51
2023/04/24 06:14:43;;;;;;;3.55;2.47;;;15.90;99.90;;;;;;5076080;28;20123;-51
2023/04/24 06:17:09;;;;;;;4.28;2.60;;;17.50;94.10;;;;;;5090729;28;20096;-51
2023/04/24 06:19:34;;;;;;;2.60;2.30;;;18.70;94.90;;;;;;5082786;28;20204;-51
2023/04/24 06:22:00;;;;;;;2.60;2.15;;;19.30;91.50;;;;;;5070268;28;20101;-52
2023/04/24 06:24:28;;;;;;;1.98;1.80;;;19.30;77.50;;;;;;5083364;28;20032;-50
2023/04/24 06:26:54;;;;;;;2.30;2.10;;;19.00;86.00;;;;;;5070322;28;20016;-51
2023/04/24 06:29:19;;;;;;;3.28;1.90;;;18.90;88.60;;;;;;5084326;28;20028;-54
2023/04/24 06:31:45;;;;;;;1.77;1.60;;;19.10;86.70;;;;;;5070058;28;20025;-54
2023/04/24 06:34:10;;;;;;;1.60;1.50;;;19.40;83.00;;;;;;5076682;28;20040;-54
2023/04/24 06:36:36;;;;;;;1.38;1.20;;;20.00;82.40;;;;;;5070263;28;20100;-54
2023/04/24 06:39:01;;;;;;;1.80;1.38;;;20.80;78.00;;;;;;5086576;28;20032;-54
2023/04/24 06:41:28;;;;;;;2.08;1.30;;;21.30;70.20;;;;;;5070391;28;20035;-54
2023/04/24 06:43:53;;;;;;;2.67;1.40;;;21.80;69.10;;;;;;5081857;28;20025;-52
2023/04/24 06:46:19;;;;;;;1.25;1.15;;;22.50;66.80;;;;;;5070087;28;20043;-54
2023/04/24 06:48:44;;;;;;;2.95;1.30;;;22.70;61.80;;;;;;5075602;28;20107;-55
2023/04/24 06:51:10;;;;;;;1.48;1.00;;;22.50;59.10;;;;;;5053842;28;20029;-58
2023/04/24 06:53:35;;;;;;;2.10;1.00;;;22.00;60.40;;;;;;5075087;28;20032;-57
2023/04/24 06:56:01;;;;;;;2.22;1.13;;;22.00;60.80;;;;;;5071523;28;20300;-56
2023/04/24 06:58:26;;;;;;;1.20;1.00;;;22.30;59.70;;;;;;5069233;28;20043;-50
2023/04/24 07:00:51;;;;;;;4.20;1.30;;;22.50;57.60;;;;;;5089986;28;20028;-55
2023/04/24 07:03:17;;;;;;;2.53;1.17;;;22.30;58.20;;;;;;5067252;28;20047;-53
2023/04/24 07:05:42;;;;;;;1.20;1.10;;;22.20;57.40;;;;;;5078817;28;20431;-55
2023/04/24 07:08:08;;;;;;;2.28;0.80;;;22.30;54.90;;;;;;5088598;28;20027;-55
2023/04/24 07:10:35;;;;;;;1.20;0.93;;;22.90;53.90;;;;;;5081586;28;20024;-55
2023/04/24 07:13:01;;;;;;;2.33;1.00;;;24.00;48.00;;;;;;5070306;28;20032;-54
2023/04/24 07:15:27;;;;;;;1.20;1.00;;;24.90;41.20;;;;;;5088092;28;20028;-54
2023/04/24 07:17:52;;;;;;;1.13;0.90;;;25.60;40.40;;;;;;5090749;28;20258;-55
2023/04/24 07:20:18;;;;;;;1.63;1.00;;;25.90;33.10;;;;;;5070231;28;20596;-55
2023/04/24 07:22:43;;;;;;;1.30;0.77;;;25.90;29.30;;;;;;5090676;28;20031;-54
2023/04/24 07:25:09;;;;;;;1.83;0.90;;;26.00;23.30;;;;;;5068678;28;20519;-53
2023/04/24 07:27:36;;;;;;;1.08;0.65;;;26.90;28.60;;;;;;5090697;28;20028;-54
2023/04/24 07:30:02;;;;;;;0.95;0.85;;;27.60;26.50;;;;;;5070466;28;20081;-55
2023/04/24 07:32:28;;;;;;;1.40;0.82;;;27.30;25.10;;;;;;5087737;28;20050;-55
2023/04/24 07:34:53;;;;;;;2.30;0.82;;;26.70;24.40;;;;;;5089990;28;20098;-55
2023/04/24 07:37:20;;;;;;;0.55;0.50;;;27.00;24.60;;;;;;5067270;28;20036;-55
2023/04/24 07:39:45;;;;;;;0.90;0.60;;;28.00;23.00;;;;;;5089383;28;20111;-55
2023/04/24 07:42:11;;;;;;;0.60;0.60;;;29.10;17.90;;;;;;5068496;28;20163;-56
2023/04/24 07:44:36;;;;;;;0.68;0.60;;;29.90;19.20;;;;;;5089127;28;20081;-56
2023/04/24 07:47:02;;;;;;;1.05;0.80;;;30.30;18.20;;;;;;5068561;28;20452;-53
2023/04/24 07:49:27;;;;;;;0.90;0.40;;;30.40;17.10;;;;;;5089219;28;20032;-55
2023/04/24 07:51:53;;;;;;;0.50;0.40;;;30.30;16.20;;;;;;5068346;28;20017;-55
2023/04/24 07:54:18;;;;;;;0.77;0.55;;;30.20;15.40;;;;;;5088983;28;20313;-55
2023/04/24 07:56:44;;;;;;;0.50;0.50;;;30.60;12.40;;;;;;5068423;28;20535;-54
2023/04/24 07:59:10;;;;;;;1.90;0.57;;;30.60;13.70;;;;;;5089026;28;20031;-56
2023/04/24 08:01:36;;;;;;;1.05;0.50;;;30.70;13.10;;;;;;5067954;28;20040;-55
2023/04/24 08:04:02;;;;;;;3.65;0.68;;;30.90;12.00;;;;;;5088908;28;20043;-56
2023/04/24 08:06:30;;;;;;;0.55;0.30;;;30.90;11.30;;;;;;5072253;28;20515;-56
2023/04/24 08:08:56;;;;;;;1.27;0.60;;;30.30;11.00;;;;;;5069456;28;20051;-56
2023/04/24 08:11:22;;;;;;;1.27;0.60;;;29.40;10.90;;;;;;5086727;28;20038;-54
2023/04/24 08:13:47;;;;;;;0.63;0.60;;;28.40;9.20;;;;;;5069610;28;20036;-54
2023/04/24 08:16:13;;;;;;;1.05;0.52;;;27.40;10.80;;;;;;5086691;28;20028;-55
2023/04/24 08:18:38;;;;;;;0.68;0.60;;;26.80;11.30;;;;;;5069656;28;20105;-55
2023/04/24 08:21:04;;;;;;;0.43;0.43;;;26.40;11.70;;;;;;5086597;28;20071;-53
2023/04/24 08:23:30;;;;;;;1.65;0.52;;;26.20;11.80;;;;;;5068125;28;20025;-55
2023/04/24 08:25:55;;;;;;;1.40;0.65;;;26.00;11.70;;;;;;5086767;28;20052;-56
2023/04/24 08:28:22;;;;;;;0.77;0.50;;;25.90;12.20;;;;;;5089127;28;20487;-55
2023/04/24 08:30:47;;;;;;;0.65;0.50;;;25.90;12.30;;;;;;5072771;28;20024;-54
2023/04/24 08:33:14;;;;;;;2.25;0.73;;;26.00;12.50;;;;;;5086296;28;20048;-55
2023/04/24 08:35:40;;;;;;;0.82;0.60;;;26.00;11.80;;;;;;5071217;28;20024;-55
2023/04/24 08:38:05;;;;;;;0.73;0.30;;;26.00;11.10;;;;;;5089043;28;20118;-56
2023/04/24 08:40:34;;;;;;;0.68;0.50;;;26.10;11.90;;;;;;5070575;28;20035;-55
2023/04/24 08:43:00;;;;;;;0.85;0.60;;;26.20;11.40;;;;;;5088974;28;20021;-56
2023/04/24 08:45:25;;;;;;;0.60;0.50;;;26.10;11.70;;;;;;5068522;28;20442;-54
2023/04/24 08:47:53;;;;;;;0.68;0.40;;;25.80;10.70;;;;;;5089018;28;20104;-56
2023/04/24 08:50:19;;;;;;;0.63;0.32;;;25.50;11.10;;;;;;5068440;28;20032;-55
2023/04/24 08:52:45;;;;;;;0.50;0.50;;;25.20;11.10;;;;;;5089132;28;20558;-53
2023/04/24 08:55:11;;;;;;;0.38;0.38;;;24.90;11.00;;;;;;5067628;28;20119;-53
2023/04/24 08:57:38;;;;;;;1.13;0.60;;;24.70;10.80;;;;;;5088838;28;20016;-55
2023/04/24 09:00:04;;;;;;;0.40;0.40;;;24.40;10.90;;;;;;5069185;28;20025;-55
2023/04/24 09:02:31;;;;;;;0.40;0.40;;;24.20;10.90;;;;;;5086548;28;20024;-55
2023/04/24 09:04:57;;;;;;;0.40;0.40;;;24.00;11.20;;;;;;5069936;28;20035;-51
2023/04/24 09:07:25;;;;;;;0.82;0.45;;;24.00;11.50;;;;;;5087150;28;20106;-55
2023/04/24 09:09:52;;;;;;;0.40;0.40;;;24.00;11.20;;;;;;5088331;28;20032;-55
2023/04/24 09:12:18;;;;;;;0.47;0.40;;;24.00;10.90;;;;;;5067068;28;20029;-54
2023/04/24 09:14:45;;;;;;;1.27;0.40;;;24.20;11.60;;;;;;5088002;28;20101;-55
2023/04/24 09:17:11;;;;;;;0.40;0.40;;;24.40;11.40;;;;;;5066843;28;20059;-55
2023/04/24 09:19:37;;;;;;;0.30;0.30;;;24.70;11.20;;;;;;5087717;28;20487;-55
2023/04/24 09:22:07;;;;;;;1.00;0.50;;;24.80;10.90;;;;;;5066900;28;20035;-54
2023/04/24 09:24:33;;;;;;;0.90;0.47;;;24.90;10.50;;;;;;5087686;28;20042;-56
2023/04/24 09:27:01;;;;;;;0.40;0.40;;;25.00;10.40;;;;;;5068633;28;20036;-53
2023/04/24 09:29:27;;;;;;;0.55;0.43;;;24.90;9.70;;;;;;5092327;28;20103;-55
2023/04/24 09:31:52;;;;;;;1.40;0.20;;;24.70;9.00;;;;;;5071145;28;20112;-54
2023/04/24 09:34:23;;;;;;;0.43;0.38;;;24.40;8.80;;;;;;5091471;28;20098;-51
2023/04/24 09:36:48;;;;;;;0.60;0.55;;;24.00;8.30;;;;;;5070818;28;20320;-54
2023/04/24 09:39:16;;;;;;;1.05;0.60;;;23.60;9.20;;;;;;5091627;28;20028;-54
2023/04/24 09:42:02;;;;;;;0.50;0.40;;;23.60;9.30;;;;;;5070471;28;20116;-54
2023/04/24 09:44:28;;;;;;;;;;;23.50;8.80;;;;;;5052567;28;20033;-56
2023/04/24 09:46:59;;;;;;;0.65;0.55;;;23.40;9.20;;;;;;5089398;28;20438;-55
2023/04/24 09:49:27;;;;;;;1.23;0.57;;;23.30;10.00;;;;;;5092473;28;20040;-59
2023/04/24 09:52:06;;;;;;;1.38;0.38;;;23.20;9.70;;;;;;5070475;28;20060;-59
2023/04/24 09:54:33;;;;;;;0.32;0.30;;;23.00;10.10;;;;;;5051707;28;20039;-59
2023/04/24 09:57:00;;;;;;;0.32;0.32;;;22.60;10.10;;;;;;5089284;28;20492;-59
2023/04/24 09:59:25;;;;;;;0.38;0.38;;;22.40;10.40;;;;;;5091861;28;20040;-58
2023/04/24 10:01:52;;;;;;;0.47;0.30;;;22.20;10.80;;;;;;5070335;28;20036;-59
2023/04/24 10:04:18;;;;;;;1.20;0.50;;;22.00;11.30;;;;;;5091503;28;20077;-59
2023/04/24 10:06:44;;;;;;;0.40;0.40;;;22.00;11.50;;;;;;5064381;28;20434;-59
2023/04/24 10:09:11;;;;;;;0.90;0.50;;;22.10;11.70;;;;;;5091083;28;20047;-59
2023/04/24 10:11:39;;;;;;;0.73;0.40;;;22.10;11.60;;;;;;5070130;28;20481;-59
2023/04/24 10:14:05;;;;;;;0.60;0.43;;;22.00;11.80;;;;;;5091558;28;20024;-59
2023/04/24 10:16:31;;;;;;;1.88;0.60;;;21.80;12.60;;;;;;5070026;28;20407;-59
2023/04/24 10:18:59;;;;;;;0.63;0.50;;;21.60;12.80;;;;;;5091109;28;20039;-58
2023/04/24 10:21:26;;;;;;;0.68;0.68;;;21.30;13.80;;;;;;5080040;28;20515;-59
2023/04/24 10:23:53;;;;;;;0.65;0.57;;;20.80;15.40;;;;;;5071572;28;20033;-59
2023/04/24 10:26:19;;;;;;;0.43;0.40;;;20.60;15.10;;;;;;5088864;28;20024;-58
2023/04/24 10:28:45;;;;;;;0.73;0.50;;;20.30;15.30;;;;;;5071625;28;20111;-59
2023/04/24 10:31:13;;;;;;;0.73;0.47;;;20.10;15.90;;;;;;5089046;28;20035;-58
2023/04/24 10:33:41;;;;;;;0.77;0.50;;;20.00;16.20;;;;;;5077182;28;20044;-59
2023/04/24 10:36:09;;;;;;;0.95;0.40;;;19.70;18.00;;;;;;5089470;28;20032;-59
2023/04/24 10:38:36;;;;;;;1.45;0.60;;;19.40;20.30;;;;;;5070903;28;20447;-58
2023/04/24 10:41:22;;;;;;;0.75;0.47;;;19.10;20.80;;;;;;5088689;28;20027;-59
2023/04/24 10:44:10;;;;;;;2.53;0.68;;;18.90;23.10;;;;;;5050936;28;20529;-58
2023/04/24 10:46:37;;;;;;;1.75;0.73;;;18.80;22.50;;;;;;5079989;28;20492;-58
2023/04/24 10:49:06;;;;;;;1.13;0.90;;;18.80;23.30;;;;;;5091154;28;20111;-59
2023/04/24 10:51:50;;;;;;;0.52;0.50;;;18.90;23.70;;;;;;5069175;28;20028;-59
2023/04/24 10:54:23;;;;;;;1.25;0.77;;;19.10;24.90;;;;;;5050826;28;20041;-59
2023/04/24 10:56:50;;;;;;;1.88;0.80;;;19.30;23.60;;;;;;5088240;28;20017;-58
2023/04/24 10:59:25;;;;;;;1.10;0.60;;;19.50;23.00;;;;;;5090927;28;20093;-58
2023/04/24 11:01:57;;;;;;;1.30;0.55;;;19.60;23.40;;;;;;5087255;28;20112;-59
2023/04/24 11:04:31;;;;;;;1.10;0.73;;;19.60;22.50;;;;;;5090885;28;20038;-59
2023/04/24 11:06:57;;;;;;;0.70;0.50;;;19.60;22.50;;;;;;5085017;28;20089;-59
2023/04/24 11:09:25;;;;;;;0.60;0.60;;;19.70;22.50;;;;;;5074200;28;20024;-58
2023/04/24 11:12:03;;;;;;;0.50;0.43;;;19.80;22.50;;;;;;5068463;28;20028;-59
2023/04/24 11:14:29;;;;;;;1.63;0.90;;;19.90;22.10;;;;;;5067402;28;20051;-59
2023/04/24 11:16:55;;;;;;;0.30;0.30;;;19.90;22.00;;;;;;5069286;28;20507;-58
2023/04/24 11:19:23;;;;;;;0.40;0.40;;;20.00;20.90;;;;;;5086761;28;20640;-59
2023/04/24 11:21:56;;;;;;;1.75;0.50;;;20.20;21.10;;;;;;5069292;28;20036;-59
2023/04/24 11:24:22;;;;;;;1.60;0.52;;;20.30;20.40;;;;;;5069367;28;20551;-58
2023/04/24 11:26:48;;;;;;;1.17;0.68;;;20.30;20.60;;;;;;5069355;28;20462;-59
2023/04/24 11:29:14;;;;;;;1.30;0.60;;;20.50;20.00;;;;;;5086599;28;20024;-59
2023/04/24 11:31:48;;;;;;;1.85;0.50;;;20.70;19.60;;;;;;5069361;28;20030;-59
2023/04/24 11:34:14;;;;;;;0.40;0.40;;;20.90;19.30;;;;;;5068610;28;20048;-59
2023/04/24 11:36:46;;;;;;;0.50;0.40;;;21.30;19.00;;;;;;5088855;28;20024;-59
2023/04/24 11:39:11;;;;;;;0.85;0.50;;;21.20;17.70;;;;;;5065127;28;20060;-58
2023/04/24 11:41:37;;;;;;;1.75;0.50;;;21.10;18.30;;;;;;5069355;28;20048;-59
2023/04/24 11:44:06;;;;;;;1.13;0.60;;;21.30;17.90;;;;;;5086171;28;20023;-59
2023/04/24 11:46:32;;;;;;;2.60;0.55;;;21.30;18.10;;;;;;5068574;28;20029;-59
2023/04/24 11:48:58;;;;;;;1.92;0.50;;;21.30;16.90;;;;;;5085716;28;20413;-59
2023/04/24 11:51:26;;;;;;;1.27;0.50;;;21.00;16.90;;;;;;5069246;28;20066;-59
2023/04/24 11:53:52;;;;;;;2.92;0.50;;;20.80;16.60;;;;;;5086281;28;20032;-59
2023/04/24 11:56:21;;;;;;;1.38;0.40;;;20.80;17.50;;;;;;5088415;28;20024;-60
2023/04/24 11:58:47;;;;;;;0.95;0.50;;;20.70;17.60;;;;;;5072906;28;20516;-60
2023/04/24 12:01:13;;;;;;;0.88;0.40;;;20.70;17.50;;;;;;5088551;28;20020;-59
2023/04/24 12:03:38;;;;;;;0.70;0.40;;;20.70;17.40;;;;;;5071993;28;20028;-58
2023/04/24 12:06:11;;;;;;;0.95;0.60;;;20.70;17.60;;;;;;5067972;28;20186;-58
2023/04/24 12:08:37;;;;;;;0.82;0.47;;;20.60;17.70;;;;;;5085557;28;20068;-58
2023/04/24 12:11:05;;;;;;;0.68;0.50;;;20.30;17.50;;;;;;5088378;28;20063;-58
2023/04/24 12:13:31;;;;;;;0.60;0.40;;;20.20;18.10;;;;;;5070310;28;20089;-58
2023/04/24 12:15:57;;;;;;;1.65;0.50;;;19.90;19.20;;;;;;5088530;28;20107;-58
2023/04/24 12:18:23;;;;;;;0.90;0.50;;;19.60;21.50;;;;;;5068015;28;20110;-59
2023/04/24 12:20:49;;;;;;;0.77;0.50;;;19.40;23.30;;;;;;5087991;28;20031;-58
2023/04/24 12:23:14;;;;;;;0.95;0.50;;;19.10;25.40;;;;;;5068544;28;20032;-58
2023/04/24 12:25:40;;;;;;;1.00;0.50;;;18.90;26.60;;;;;;5088171;28;20069;-58
2023/04/24 12:28:06;;;;;;;1.17;0.50;;;18.80;28.10;;;;;;5066982;28;20037;-59
2023/04/24 12:30:33;;;;;;;0.55;0.52;;;18.90;29.50;;;;;;5087999;28;20259;-58
2023/04/24 12:33:00;;;;;;;0.60;0.40;;;19.10;28.90;;;;;;5065564;28;20063;-59
2023/04/24 12:35:28;;;;;;;0.95;0.40;;;19.30;28.90;;;;;;5086279;28;20412;-59
2023/04/24 12:37:54;;;;;;;2.33;0.50;;;19.50;27.90;;;;;;5087720;28;20089;-59
2023/04/24 12:40:21;;;;;;;1.08;0.40;;;19.70;27.60;;;;;;5065904;28;20033;-58
2023/04/24 12:42:48;;;;;;;1.17;0.40;;;19.90;26.80;;;;;;5085998;28;20056;-59
2023/04/24 12:45:15;;;;;;;1.33;0.47;;;19.90;25.40;;;;;;5065810;28;20070;-58
2023/04/24 12:47:42;;;;;;;0.70;0.50;;;20.10;25.00;;;;;;5087204;28;20032;-58